createdAt,value
2018-01-29T15:44:36.322Z,928.29
2018-01-29T15:45:36.177Z,928.30
2018-01-29T15:46:36.171Z,928.28
2018-01-29T15:47:36.171Z,928.27
2018-01-29T15:48:36.172Z,928.20
2018-01-29T15:49:36.173Z,928.19
2018-01-29T15:50:36.172Z,928.16
2018-01-29T15:51:36.172Z,928.16
2018-01-29T15:52:36.173Z,928.15
2018-01-29T15:53:36.172Z,928.16
2018-01-29T15:54:36.171Z,928.12
2018-01-29T15:55:36.168Z,928.11
2018-01-29T15:56:36.173Z,928.13
2018-01-29T15:57:36.168Z,928.09
2018-01-29T15:58:36.172Z,928.08
2018-01-29T15:59:36.168Z,928.08
2018-01-29T16:00:36.172Z,928.02
2018-01-29T16:01:36.167Z,928.06
2018-01-29T16:02:36.156Z,928.05
2018-01-29T16:03:36.171Z,928.01
2018-01-29T16:04:36.158Z,928.03
2018-01-29T16:05:36.157Z,928.00
2018-01-29T16:06:36.167Z,928.00
2018-01-29T16:07:36.156Z,927.98
2018-01-29T16:08:36.151Z,928.00
2018-01-29T16:09:36.167Z,927.96
2018-01-29T16:10:36.171Z,927.96
2018-01-29T16:11:36.170Z,927.94
2018-01-29T16:12:36.156Z,927.88
2018-01-29T16:13:36.152Z,927.91
2018-01-29T16:14:36.152Z,927.89
2018-01-29T16:15:36.166Z,927.94
2018-01-29T16:16:36.166Z,927.90
2018-01-29T16:17:36.156Z,927.85
2018-01-29T16:18:36.166Z,927.86
2018-01-29T16:19:36.167Z,927.87
2018-01-29T16:20:36.159Z,927.81
2018-01-29T16:21:36.156Z,927.74
2018-01-29T16:22:36.150Z,927.78
2018-01-29T16:23:36.168Z,927.82
2018-01-29T16:24:36.166Z,927.76
2018-01-29T16:25:36.170Z,927.76
2018-01-29T16:26:36.150Z,927.75
2018-01-29T16:27:36.156Z,927.69
2018-01-29T16:28:36.150Z,927.67
2018-01-29T16:29:36.169Z,927.70
2018-01-29T16:30:36.149Z,927.66
2018-01-29T16:31:36.165Z,927.63
2018-01-29T16:32:36.168Z,927.61
2018-01-29T16:33:36.153Z,927.54
2018-01-29T16:34:36.167Z,927.59
2018-01-29T16:35:36.153Z,927.55
2018-01-29T16:36:36.151Z,927.54
2018-01-29T16:37:36.151Z,927.46
2018-01-29T16:38:36.150Z,927.39
2018-01-29T16:39:36.146Z,927.35
2018-01-29T16:40:36.165Z,927.37
2018-01-29T16:41:36.160Z,927.37
2018-01-29T16:42:36.159Z,927.32
2018-01-29T16:43:36.159Z,927.40
2018-01-29T16:44:36.143Z,927.35
2018-01-29T16:45:36.147Z,927.36
2018-01-29T16:46:36.160Z,927.30
2018-01-29T16:47:36.146Z,927.25
2018-01-29T16:48:36.159Z,927.19
2018-01-29T16:49:36.159Z,927.23
2018-01-29T16:50:36.153Z,927.21
2018-01-29T16:51:36.144Z,927.21
2018-01-29T16:52:36.136Z,927.24
2018-01-29T16:53:36.140Z,927.24
2018-01-29T16:54:36.138Z,927.19
2018-01-29T16:55:36.137Z,927.11
2018-01-29T16:56:36.155Z,927.06
2018-01-29T16:57:36.132Z,926.99
2018-01-29T16:58:36.133Z,926.95
2018-01-29T16:59:36.134Z,926.96
2018-01-29T17:00:36.147Z,926.97
2018-01-29T17:01:36.132Z,926.98
2018-01-29T17:02:36.145Z,926.96
2018-01-29T17:03:36.130Z,926.93
2018-01-29T17:04:36.148Z,926.95
2018-01-29T17:05:36.142Z,926.91
2018-01-29T17:06:36.122Z,926.88
2018-01-29T17:07:36.126Z,926.89
2018-01-29T17:08:36.121Z,926.86
2018-01-29T17:09:36.120Z,926.85
2018-01-29T17:10:36.118Z,926.82
2018-01-29T17:11:36.117Z,926.81
2018-01-29T17:12:36.135Z,926.82
2018-01-29T17:13:36.138Z,926.80
2018-01-29T17:14:36.137Z,926.76
2018-01-29T17:15:36.136Z,926.72
2018-01-29T17:16:36.113Z,926.69
2018-01-29T17:17:36.111Z,926.68
2018-01-29T17:18:36.110Z,926.73
2018-01-29T17:19:36.114Z,926.73
2018-01-29T17:20:36.130Z,926.72
2018-01-29T17:21:36.125Z,926.75
2018-01-29T17:22:36.148Z,926.75
2018-01-29T17:23:36.126Z,926.72
2018-01-29T17:24:36.107Z,926.74
2018-01-29T17:25:36.107Z,926.69
2018-01-29T17:26:36.103Z,926.65
2018-01-29T17:27:36.099Z,926.66
2018-01-29T17:28:36.117Z,926.63
2018-01-29T17:29:36.100Z,926.66
2018-01-29T17:30:36.098Z,926.65
2018-01-29T17:31:36.094Z,926.68
2018-01-29T17:32:36.096Z,926.68
2018-01-29T17:33:36.110Z,926.69
2018-01-29T17:34:36.095Z,926.75
2018-01-29T17:35:36.107Z,926.78
2018-01-29T17:36:36.091Z,926.77
2018-01-29T17:37:36.090Z,926.81
2018-01-29T17:38:36.090Z,926.82
2018-01-29T17:39:36.087Z,926.80
2018-01-29T17:40:36.086Z,926.79
2018-01-29T17:41:36.100Z,926.72
2018-01-29T17:42:36.098Z,926.68
2018-01-29T17:43:36.081Z,926.67
2018-01-29T17:44:36.095Z,926.65
2018-01-29T17:45:36.075Z,926.65
2018-01-29T17:46:36.088Z,926.66
2018-01-29T17:47:36.079Z,926.66
2018-01-29T17:48:36.090Z,926.68
2018-01-29T17:49:36.070Z,926.70
2018-01-29T17:50:36.087Z,926.69
2018-01-29T17:51:36.066Z,926.76
2018-01-29T17:52:36.071Z,926.77
2018-01-29T17:53:36.068Z,926.69
2018-01-29T17:54:36.077Z,926.66
2018-01-29T17:55:36.097Z,926.64
2018-01-29T17:56:36.082Z,926.62
2018-01-29T17:57:36.078Z,926.56
2018-01-29T17:58:36.061Z,926.62
2018-01-29T17:59:36.075Z,926.57
2018-01-29T18:00:36.058Z,926.56
2018-01-29T18:01:36.059Z,926.57
2018-01-29T18:02:36.070Z,926.55
2018-01-29T18:03:36.054Z,926.55
2018-01-29T18:04:36.071Z,926.51
2018-01-29T18:05:36.066Z,926.53
2018-01-29T18:06:36.067Z,926.53
2018-01-29T18:07:36.067Z,926.52
2018-01-29T18:08:36.046Z,926.53
2018-01-29T18:09:36.064Z,926.51
2018-01-29T18:10:36.062Z,926.51
2018-01-29T18:11:36.043Z,926.49
2018-01-29T18:12:36.059Z,926.51
2018-01-29T18:13:36.058Z,926.50
2018-01-29T18:14:36.056Z,926.44
2018-01-29T18:15:36.038Z,926.47
2018-01-29T18:16:36.035Z,926.45
2018-01-29T18:17:36.029Z,926.48
2018-01-29T18:18:36.041Z,926.48
2018-01-29T18:19:36.026Z,926.43
2018-01-29T18:20:36.019Z,926.40
2018-01-29T18:21:36.047Z,926.37
2018-01-29T18:22:36.035Z,926.37
2018-01-29T18:23:36.039Z,926.35
2018-01-29T18:24:36.024Z,926.36
2018-01-29T18:25:36.041Z,926.33
2018-01-29T18:26:36.039Z,926.31
2018-01-29T18:27:36.034Z,926.32
2018-01-29T18:28:36.018Z,926.32
2018-01-29T18:29:36.032Z,926.33
2018-01-29T18:30:36.034Z,926.31
2018-01-29T18:31:36.005Z,926.31
2018-01-29T18:32:36.004Z,926.30
2018-01-29T18:33:36.005Z,926.32
2018-01-29T18:34:36.020Z,926.32
2018-01-29T18:35:36.006Z,926.30
2018-01-29T18:36:36.018Z,926.28
2018-01-29T18:37:36.004Z,926.31
2018-01-29T18:38:35.997Z,926.29
2018-01-29T18:39:36.011Z,926.32
2018-01-29T18:40:36.005Z,926.33
2018-01-29T18:41:36.019Z,926.29
2018-01-29T18:42:36.008Z,926.33
2018-01-29T18:43:35.992Z,926.36
2018-01-29T18:44:36.000Z,926.39
2018-01-29T18:45:36.014Z,926.38
2018-01-29T18:46:36.013Z,926.43
2018-01-29T18:47:35.997Z,926.42
2018-01-29T18:48:35.992Z,926.41
2018-01-29T18:49:35.991Z,926.43
2018-01-29T18:50:36.008Z,926.38
2018-01-29T18:51:35.983Z,926.43
2018-01-29T18:52:36.006Z,926.48
2018-01-29T18:53:36.001Z,926.51
2018-01-29T18:54:35.994Z,926.48
2018-01-29T18:55:35.988Z,926.49
2018-01-29T18:56:35.992Z,926.46
2018-01-29T18:57:36.001Z,926.46
2018-01-29T18:58:35.997Z,926.46
2018-01-29T18:59:35.992Z,926.42
2018-01-29T19:00:35.997Z,926.40
2018-01-29T19:01:35.998Z,926.40
2018-01-29T19:02:35.990Z,926.42
2018-01-29T19:03:35.989Z,926.41
2018-01-29T19:04:35.992Z,926.38
2018-01-29T19:05:35.990Z,926.33
2018-01-29T19:06:35.977Z,926.34
2018-01-29T19:07:35.976Z,926.28
2018-01-29T19:08:35.979Z,926.27
2018-01-29T19:09:35.976Z,926.26
2018-01-29T19:10:35.973Z,926.26
2018-01-29T19:11:35.975Z,926.24
2018-01-29T19:12:35.969Z,926.27
2018-01-29T19:13:35.967Z,926.26
2018-01-29T19:14:35.958Z,926.22
2018-01-29T19:15:35.965Z,926.18
2018-01-29T19:16:35.963Z,926.21
2018-01-29T19:17:35.960Z,926.20
2018-01-29T19:18:35.947Z,926.24
2018-01-29T19:19:35.955Z,926.21
2018-01-29T19:20:35.951Z,926.24
2018-01-29T19:21:35.945Z,926.23
2018-01-29T19:22:35.937Z,926.24
2018-01-29T19:23:35.939Z,926.27
2018-01-29T19:24:35.937Z,926.26
2018-01-29T19:25:35.934Z,926.25
2018-01-29T19:26:35.935Z,926.25
2018-01-29T19:27:35.928Z,926.24
2018-01-29T19:28:35.926Z,926.28
2018-01-29T19:29:35.923Z,926.29
2018-01-29T19:30:35.920Z,926.27
2018-01-29T19:31:35.918Z,926.28
2018-01-29T19:32:35.959Z,926.27
2018-01-29T19:33:35.907Z,926.26
2018-01-29T19:34:35.909Z,926.31
2018-01-29T19:35:35.911Z,926.28
2018-01-29T19:36:35.903Z,926.27
2018-01-29T19:37:35.900Z,926.24
2018-01-29T19:38:35.897Z,926.32
2018-01-29T19:39:35.894Z,926.24
2018-01-29T19:40:35.891Z,926.28
2018-01-29T19:41:35.888Z,926.24
2018-01-29T19:42:35.884Z,926.24
2018-01-29T19:43:35.884Z,926.28
2018-01-29T19:44:35.883Z,926.24
2018-01-29T19:45:35.876Z,926.26
2018-01-29T19:46:35.922Z,926.25
2018-01-29T19:47:35.869Z,926.25
2018-01-29T19:48:35.866Z,926.25
2018-01-29T19:49:35.864Z,926.24
2018-01-29T19:50:35.860Z,926.23
2018-01-29T19:51:35.861Z,926.28
2018-01-29T19:52:35.853Z,926.25
2018-01-29T19:53:35.851Z,926.24
2018-01-29T19:54:35.847Z,926.24
2018-01-29T19:55:35.844Z,926.26
2018-01-29T19:56:35.846Z,926.23
2018-01-29T19:57:35.842Z,926.20
2018-01-29T19:58:35.838Z,926.23
2018-01-29T19:59:35.832Z,926.20
2018-01-29T20:00:35.829Z,926.27
2018-01-29T20:01:35.828Z,926.32
2018-01-29T20:02:35.826Z,926.30
2018-01-29T20:03:35.819Z,926.35
2018-01-29T20:04:35.821Z,926.44
2018-01-29T20:05:35.817Z,926.42
2018-01-29T20:06:35.809Z,926.41
2018-01-29T20:07:35.806Z,926.40
2018-01-29T20:08:35.809Z,926.36
2018-01-29T20:09:35.800Z,926.34
2018-01-29T20:10:35.796Z,926.35
2018-01-29T20:11:35.793Z,926.30
2018-01-29T20:12:35.790Z,926.29
2018-01-29T20:13:35.796Z,926.31
2018-01-29T20:14:35.784Z,926.35
2018-01-29T20:15:35.779Z,926.43
2018-01-29T20:16:35.776Z,926.48
2018-01-29T20:17:35.777Z,926.53
2018-01-29T20:18:35.820Z,926.63
2018-01-29T20:19:35.769Z,926.64
2018-01-29T20:20:35.766Z,926.68
2018-01-29T20:21:35.758Z,926.67
2018-01-29T20:22:35.758Z,926.59
2018-01-29T20:23:35.731Z,926.51
2018-01-29T20:24:35.746Z,926.45
2018-01-29T20:25:35.742Z,926.43
2018-01-29T20:26:35.719Z,926.44
2018-01-29T20:27:35.738Z,926.40
2018-01-29T20:28:35.716Z,926.43
2018-01-29T20:29:35.707Z,926.47
2018-01-29T20:30:35.724Z,926.48
2018-01-29T20:31:35.720Z,926.50
2018-01-29T20:32:35.719Z,926.50
2018-01-29T20:33:35.708Z,926.50
2018-01-29T20:34:35.687Z,926.48
2018-01-29T20:35:35.683Z,926.45
2018-01-29T20:36:35.679Z,926.44
2018-01-29T20:37:35.690Z,926.42
2018-01-29T20:38:35.684Z,926.40
2018-01-29T20:39:35.667Z,926.35
2018-01-29T20:40:35.690Z,926.33
2018-01-29T20:41:35.654Z,926.31
2018-01-29T20:42:35.669Z,926.29
2018-01-29T20:43:35.666Z,926.36
2018-01-29T20:44:35.658Z,926.38
2018-01-29T20:45:35.635Z,926.42
2018-01-29T20:46:35.649Z,926.46
2018-01-29T20:47:35.645Z,926.52
2018-01-29T20:48:35.622Z,926.59
2018-01-29T20:49:35.621Z,926.61
2018-01-29T20:50:35.617Z,926.63
2018-01-29T20:51:35.608Z,926.61
2018-01-29T20:52:35.627Z,926.60
2018-01-29T20:53:35.623Z,926.63
2018-01-29T20:54:35.613Z,926.66
2018-01-29T20:55:35.590Z,926.70
2018-01-29T20:56:35.590Z,926.73
2018-01-29T20:57:35.586Z,926.73
2018-01-29T20:58:35.581Z,926.71
2018-01-29T20:59:35.573Z,926.73
2018-01-29T21:00:35.592Z,926.73
2018-01-29T21:01:35.583Z,926.76
2018-01-29T21:02:35.582Z,926.81
2018-01-29T21:03:35.556Z,926.87
2018-01-29T21:04:35.558Z,926.93
2018-01-29T21:05:35.565Z,927.10
2018-01-29T21:06:35.546Z,927.18
2018-01-29T21:07:35.543Z,927.01
2018-01-29T21:08:35.556Z,926.96
2018-01-29T21:09:35.533Z,927.02
2018-01-29T21:10:35.542Z,927.02
2018-01-29T21:11:35.519Z,927.05
2018-01-29T21:12:35.514Z,927.02
2018-01-29T21:13:35.510Z,927.13
2018-01-29T21:14:35.511Z,927.05
2018-01-29T21:15:35.519Z,927.06
2018-01-29T21:16:35.496Z,927.07
2018-01-29T21:17:35.497Z,927.13
2018-01-29T21:18:35.485Z,927.16
2018-01-29T21:19:35.481Z,927.15
2018-01-29T21:20:35.499Z,927.20
2018-01-29T21:21:35.490Z,927.18
2018-01-29T21:22:35.488Z,927.18
2018-01-29T21:23:35.485Z,927.15
2018-01-29T21:24:35.460Z,927.21
2018-01-29T21:25:35.474Z,927.21
2018-01-29T21:26:35.446Z,927.21
2018-01-29T21:27:35.445Z,927.27
2018-01-29T21:28:35.455Z,927.27
2018-01-29T21:29:35.432Z,927.22
2018-01-29T21:30:35.426Z,927.25
2018-01-29T21:31:35.421Z,927.27
2018-01-29T21:32:35.417Z,927.22
2018-01-29T21:33:35.435Z,927.18
2018-01-29T21:34:35.430Z,927.19
2018-01-29T21:35:35.420Z,927.19
2018-01-29T21:36:35.412Z,927.17
2018-01-29T21:37:35.407Z,927.16
2018-01-29T21:38:35.405Z,927.15
2018-01-29T21:39:35.400Z,927.17
2018-01-29T21:40:35.397Z,927.17
2018-01-29T21:41:35.387Z,927.18
2018-01-29T21:42:35.386Z,927.24
2018-01-29T21:43:35.381Z,927.29
2018-01-29T21:44:35.373Z,927.35
2018-01-29T21:45:35.372Z,927.39
2018-01-29T21:46:35.366Z,927.41
2018-01-29T21:47:35.361Z,927.45
2018-01-29T21:48:35.353Z,927.45
2018-01-29T21:49:35.352Z,927.42
2018-01-29T21:50:35.345Z,927.42
2018-01-29T21:51:35.324Z,927.40
2018-01-29T21:52:35.338Z,927.41
2018-01-29T21:53:35.329Z,927.43
2018-01-29T21:54:35.308Z,927.40
2018-01-29T21:55:35.304Z,927.41
2018-01-29T21:56:35.303Z,927.42
2018-01-29T21:57:35.294Z,927.38
2018-01-29T21:58:35.308Z,927.38
2018-01-29T21:59:35.293Z,927.37
2018-01-29T22:00:35.283Z,927.42
2018-01-29T22:01:35.288Z,927.43
2018-01-29T22:02:35.282Z,927.51
2018-01-29T22:03:35.267Z,927.55
2018-01-29T22:04:35.273Z,927.58
2018-01-29T22:05:35.272Z,927.61
2018-01-29T22:06:35.247Z,927.67
2018-01-29T22:07:35.261Z,927.61
2018-01-29T22:08:35.238Z,927.57
2018-01-29T22:09:35.234Z,927.54
2018-01-29T22:10:35.229Z,927.54
2018-01-29T22:11:35.242Z,927.55
2018-01-29T22:12:35.217Z,927.52
2018-01-29T22:13:35.213Z,927.52
2018-01-29T22:14:35.225Z,927.56
2018-01-29T22:15:35.202Z,927.55
2018-01-29T22:16:35.215Z,927.56
2018-01-29T22:17:35.210Z,927.63
2018-01-29T22:18:35.204Z,927.65
2018-01-29T22:19:35.180Z,927.68
2018-01-29T22:20:35.194Z,927.69
2018-01-29T22:21:35.171Z,927.72
2018-01-29T22:22:35.164Z,927.70
2018-01-29T22:23:35.178Z,927.74
2018-01-29T22:24:35.173Z,927.69
2018-01-29T22:25:35.150Z,927.73
2018-01-29T22:26:35.162Z,927.71
2018-01-29T22:27:35.153Z,927.68
2018-01-29T22:28:35.152Z,927.71
2018-01-29T22:29:35.147Z,927.71
2018-01-29T22:30:35.138Z,927.69
2018-01-29T22:31:35.136Z,927.73
2018-01-29T22:32:35.132Z,927.78
2018-01-29T22:33:35.126Z,927.76
2018-01-29T22:34:35.120Z,927.79
2018-01-29T22:35:35.111Z,927.81
2018-01-29T22:36:35.110Z,927.83
2018-01-29T22:37:35.106Z,927.80
2018-01-29T22:38:35.100Z,927.82
2018-01-29T22:39:35.091Z,927.82
2018-01-29T22:40:35.090Z,927.83
2018-01-29T22:41:35.085Z,927.87
2018-01-29T22:42:35.060Z,927.89
2018-01-29T22:43:35.071Z,927.91
2018-01-29T22:44:35.051Z,927.94
2018-01-29T22:45:35.061Z,927.93
2018-01-29T22:46:35.055Z,927.94
2018-01-29T22:47:35.036Z,927.97
2018-01-29T22:48:35.045Z,927.99
2018-01-29T22:49:35.041Z,928.04
2018-01-29T22:50:35.035Z,928.09
2018-01-29T22:51:35.015Z,928.05
2018-01-29T22:52:35.011Z,928.03
2018-01-29T22:53:35.020Z,928.08
2018-01-29T22:54:35.015Z,928.07
2018-01-29T22:55:34.995Z,928.06
2018-01-29T22:56:34.990Z,928.05
2018-01-29T22:57:35.186Z,928.07
2018-01-29T22:58:34.995Z,928.10
2018-01-29T22:59:34.977Z,928.18
2018-01-29T23:00:34.971Z,928.12
2018-01-29T23:01:34.965Z,928.15
2018-01-29T23:02:35.009Z,928.19
2018-01-29T23:03:34.954Z,928.19
2018-01-29T23:04:34.949Z,928.21
2018-01-29T23:05:34.944Z,928.23
2018-01-29T23:06:34.938Z,928.25
2018-01-29T23:07:34.935Z,928.29
2018-01-29T23:08:34.929Z,928.27
2018-01-29T23:09:34.928Z,928.27
2018-01-29T23:10:34.918Z,928.26
2018-01-29T23:11:34.913Z,928.28
2018-01-29T23:12:34.958Z,928.31
2018-01-29T23:13:34.903Z,928.31
2018-01-29T23:14:34.897Z,928.32
2018-01-29T23:15:34.892Z,928.29
2018-01-29T23:16:34.887Z,928.32
2018-01-29T23:17:34.882Z,928.34
2018-01-29T23:18:34.876Z,928.37
2018-01-29T23:19:34.872Z,928.38
2018-01-29T23:20:34.865Z,928.46
2018-01-29T23:21:34.860Z,928.47
2018-01-29T23:22:34.854Z,928.47
2018-01-29T23:23:34.849Z,928.51
2018-01-29T23:24:34.843Z,928.55
2018-01-29T23:25:34.838Z,928.64
2018-01-29T23:26:34.831Z,928.72
2018-01-29T23:27:34.826Z,928.71
2018-01-29T23:28:34.820Z,928.76
2018-01-29T23:29:34.815Z,928.79
2018-01-29T23:30:34.809Z,928.81
2018-01-29T23:31:34.803Z,928.81
2018-01-29T23:32:34.797Z,928.86
2018-01-29T23:33:34.791Z,928.84
2018-01-29T23:34:34.785Z,928.87
2018-01-29T23:35:34.799Z,928.83
2018-01-29T23:36:34.791Z,928.88
2018-01-29T23:37:34.768Z,928.99
2018-01-29T23:38:34.761Z,929.07
2018-01-29T23:39:34.773Z,929.14
2018-01-29T23:40:34.748Z,929.26
2018-01-29T23:41:34.761Z,929.39
2018-01-29T23:42:34.735Z,929.54
2018-01-29T23:43:34.747Z,929.77
2018-01-29T23:44:34.723Z,929.95
2018-01-29T23:45:34.717Z,929.96
2018-01-29T23:46:34.710Z,930.11
2018-01-29T23:47:34.704Z,930.01
2018-01-29T23:48:34.718Z,929.74
2018-01-29T23:49:34.710Z,929.74
2018-01-29T23:50:34.684Z,929.62
2018-01-29T23:51:34.732Z,929.63
